АЭРОДРОМУУД

ICAO:
ZMUB
Нэр:
УЛААНБААТАР / БУЯНТ-УХАА
Ахц:
475033N 1064603E
010132 ZMUBYNYX
(C0368/21 NOTAMR C0320/21
Q) ZMUB/QKKKK/K /K /K /000/999/4752N10350E999
A) ZMUB B) 2112010132 C) 2201010700 EST
E) CHECKLIST YEAR=2021 0182 0183 0287 0303 0304 0305 0306 0307 0330 0352 0364 0365 0366 0367 LATEST PUBLICATIONS: AIP AMDT : 07/21 PUBLICATION DATE 18 NOV 2021 AIRAC AIP AMDT: 08/21 WEF 30 DEC 2021 AIP DATA SET: AIPZM-AMDT10-21 PUB 18 NOV 2021 OBST DATA SET : O-AREA1ZM200618 WEF 18 JUN 2020 O-AREA2ZMCK200618 WEF 18 JUN 2020 O-AREA2ZMUB200730 WEF 10 SEP 2020 O-AREA3ZMCK200618 WEF 18 JUN 2020 O-AREA3ZMUB200618 WEF 18 JUN 2020. TERRAIN DATA SET : T-AREA1ZM200618 WEF 18 JUN 2020 T-AREA2ZMCK200618 WEF 18 JUN 2020 T-AREA2ZMUB200618 WEF 18 JUN 2020 T-AREA3ZMCK200618 WEF 18 JUN 2020 T-AREA3ZMUB200618 WEF 18 JUN 2020. AD MAPPING DATA SET : AMDBZMCK200618 WEF 18 JUN 2020 AMDBZMUB200618 WEF 18 JUN 2020 AMDBZMDZ200618 WEF 18 JUN 2020 IFP DATA SET:IFPZM21 WEF 04 JAN 2021 CHECKLIST AIP SUP: AIP SUP: 01/20, 08/20 CHECKLIST AIC: SERIES C: 02/20, 01/21, 02/21)
- 6 days ago -
010125 ZMUBYNYX
(A0987/21 NOTAMR A0900/21
Q) ZMUB/QKKKK/K /K /K /000/999/4752N10350E999
A) ZMUB B) 2112010126 C) 2201010700 EST
E) CHECKLIST YEAR=2021 0770 0881 0882 0980 0981 0982 0984 0985 LATEST PUBLICATIONS: AIP AMDT : 07/21 PUBLICATION DATE 18 NOV 2021 AIRAC AIP AMDT: 08/21 WEF 30 DEC 2021 AIP DATA SET: AIPZM-AMDT10-21 PUB 18 NOV 2021 OBST DATA SET : O-AREA1ZM200618 WEF 18 JUN 2020 O-AREA2ZMCK200618 WEF 18 JUN 2020 O-AREA2ZMUB200730 WEF 10 SEP 2020 O-AREA3ZMCK200618 WEF 18 JUN 2020 O-AREA3ZMUB200618 WEF 18 JUN 2020. TERRAIN DATA SET : T-AREA1ZM200618 WEF 18 JUN 2020 T-AREA2ZMCK200618 WEF 18 JUN 2020 T-AREA2ZMUB200618 WEF 18 JUN 2020 T-AREA3ZMCK200618 WEF 18 JUN 2020 T-AREA3ZMUB200618 WEF 18 JUN 2020. AD MAPPING DATA SET : AMDBZMCK200618 WEF 18 JUN 2020 AMDBZMUB200618 WEF 18 JUN 2020 AMDBZMDZ200618 WEF 18 JUN 2020 IFP DATA SET:IFPZM21 WEF 04 JAN 2021 CHECKLIST AIP SUP: AIP SUP: 01/20, 08/20 CHECKLIST AIC: SERIES A: 04/17, 03/20, 06/20, 01/21, 02/21, 03/21)
- 6 days ago -
291121 ZMUBYNYX
(A0984/21 NOTAMN
Q) ZMUB/QFALT/IV/NBO/A /000/999/4750N10646E005
A) ZMUB B) 2111300000 C) PERM
E) AD AVBL FOR EMERGENCY LANDING.)
- 1 week ago -
231154 ZMUBYNYX
(A0981/21 NOTAMN
Q) ZMUB/QFATT/IV/BO /A /000/999/4750N10646E005
A) ZMUB B) 2112300000 C) 2201122359
E) TRIGGER NOTAM-PERM AIRAC AIP AMDT 08/21 WEF 30 DEC 2021 INTERMEDIATE HLDG PSN MARKINGS OF TWY C AND D WITHDRAWN)
- 2 weeks ago -
METAR
No records found.
TAF
TAF ZMUB 061630Z 0618/0724 VRB02MPS 6000 SCT100 TNM22/0622Z TXM02/0706Z=
- 5 hours ago -
TAF ZMUB 061030Z 0612/0718 VRB02MPS 6000 SCT100 TNM22/0622Z TXM02/0706Z=
- 11 hours ago -
TAF ZMUB 060757Z 0609/0618 VRB02MPS CAVOK=
- 13 hours ago -
TAF ZMUB 060432Z 0606/0712 VRB02MPS 6000 SCT100 TXM04/0606Z TNM22/0622Z=
- 17 hours ago -
TAF COR ZMUB 052245Z 0600/0706 VRB02MPS 6000 SCT100 TXM04/0606Z TNM22/0622Z BECMG 0604/0606 9999 NSW BECMG 0618/0620 6000=
- 22 hours ago -
TAF ZMUB 052230Z 0600/0706 VRB02MPS 6000 SCT100 TXM04/0606Z TNM22/0622Z BECMG 0604/0606 9999 NSW BECMG 0618/0620 6000=
- 23 hours ago -
TAF COR ZMUB 051644Z 0518/0624 VRB02MPS 6000 SCT100 TNM22/0522Z TXM04/0606Z BECMG 0604/0606 9999 NSW BECMG 0619/0621 6000=
- 1 day ago -
TAF ZMUB 051630Z 0518/0624 VRB02MPS 6000 SCT100 TNM22/0522Z TXM04/0606Z BECMG 0604/0606 9999 NSW BECMG 0619/0521 6000=
- 1 day ago -
TAF ZMUB 051030Z 0512/0618 VRB02MPS 9999 SCT100 TNM22/0522Z TXM04/0606Z BECMG 0518/0520 6000 BECMG 0604/0606 9999 NSW=
- 1 day ago -